sensor_id;sensor_type;location;lat;lon;timestamp;pressure;altitude;pressure_sealevel;temperature;humidity
3122;BME280;1571;52.524;14.104;2023-02-18T00:01:18;100872.47;;;6.58;78.86
3122;BME280;1571;52.524;14.104;2023-02-18T00:03:48;100881.28;;;6.57;78.74
3122;BME280;1571;52.524;14.104;2023-02-18T00:06:19;100873.84;;;6.66;78.83
3122;BME280;1571;52.524;14.104;2023-02-18T00:08:50;100885.31;;;6.65;78.36
3122;BME280;1571;52.524;14.104;2023-02-18T00:11:20;100883.88;;;6.58;78.46
3122;BME280;1571;52.524;14.104;2023-02-18T00:13:49;100890.25;;;6.53;78.67
3122;BME280;1571;52.524;14.104;2023-02-18T00:16:18;100889.59;;;6.47;79.05
3122;BME280;1571;52.524;14.104;2023-02-18T00:18:46;100878.41;;;6.42;79.53
3122;BME280;1571;52.524;14.104;2023-02-18T00:21:15;100883.41;;;6.49;79.61
3122;BME280;1571;52.524;14.104;2023-02-18T00:23:43;100873.94;;;6.44;79.37
3122;BME280;1571;52.524;14.104;2023-02-18T00:26:14;100880.44;;;6.36;79.83
3122;BME280;1571;52.524;14.104;2023-02-18T00:28:43;100867.31;;;6.34;79.94
3122;BME280;1571;52.524;14.104;2023-02-18T00:31:14;100875.97;;;6.38;79.94
3122;BME280;1571;52.524;14.104;2023-02-18T00:33:43;100875.63;;;6.25;80.16
3122;BME280;1571;52.524;14.104;2023-02-18T00:36:13;100883.22;;;6.33;80.16
3122;BME280;1571;52.524;14.104;2023-02-18T00:38:43;100886.03;;;6.28;80.35
3122;BME280;1571;52.524;14.104;2023-02-18T00:41:13;100880.44;;;6.36;80.38
3122;BME280;1571;52.524;14.104;2023-02-18T00:43:41;100871.94;;;6.29;80.47
3122;BME280;1571;52.524;14.104;2023-02-18T00:46:10;100884.06;;;6.33;80.58
3122;BME280;1571;52.524;14.104;2023-02-18T00:48:39;100884.19;;;6.30;80.73
3122;BME280;1571;52.524;14.104;2023-02-18T00:51:09;100886.63;;;6.35;80.80
3122;BME280;1571;52.524;14.104;2023-02-18T00:53:38;100882.09;;;6.38;80.84
3122;BME280;1571;52.524;14.104;2023-02-18T00:56:07;100886.50;;;6.38;80.92
3122;BME280;1571;52.524;14.104;2023-02-18T00:58:37;100887.22;;;6.41;80.84
3122;BME280;1571;52.524;14.104;2023-02-18T01:01:06;100891.28;;;6.28;80.93
3122;BME280;1571;52.524;14.104;2023-02-18T01:03:35;100883.94;;;6.36;81.28
3122;BME280;1571;52.524;14.104;2023-02-18T01:06:04;100901.59;;;6.34;81.11
3122;BME280;1571;52.524;14.104;2023-02-18T01:08:34;100884.97;;;6.32;81.41
3122;BME280;1571;52.524;14.104;2023-02-18T01:11:04;100898.31;;;6.29;81.43
3122;BME280;1571;52.524;14.104;2023-02-18T01:13:32;100888.81;;;6.25;81.80
3122;BME280;1571;52.524;14.104;2023-02-18T01:16:02;100882.88;;;6.20;81.98
3122;BME280;1571;52.524;14.104;2023-02-18T01:18:31;100877.34;;;6.26;81.87
3122;BME280;1571;52.524;14.104;2023-02-18T01:20:59;100884.31;;;6.27;82.00
3122;BME280;1571;52.524;14.104;2023-02-18T01:23:27;100887.75;;;6.29;81.87
3122;BME280;1571;52.524;14.104;2023-02-18T01:25:56;100875.47;;;6.28;81.76
3122;BME280;1571;52.524;14.104;2023-02-18T01:28:24;100880.03;;;6.24;82.16
3122;BME280;1571;52.524;14.104;2023-02-18T01:30:52;100883.88;;;6.17;82.18
3122;BME280;1571;52.524;14.104;2023-02-18T01:33:22;100882.72;;;6.23;82.42
3122;BME280;1571;52.524;14.104;2023-02-18T01:35:51;100877.84;;;6.14;82.71
3122;BME280;1571;52.524;14.104;2023-02-18T01:38:23;100875.47;;;6.08;82.61
3122;BME280;1571;52.524;14.104;2023-02-18T01:40:51;100872.56;;;6.14;82.47
3122;BME280;1571;52.524;14.104;2023-02-18T01:43:21;100878.22;;;6.04;82.88
3122;BME280;1571;52.524;14.104;2023-02-18T01:45:56;100876.78;;;5.97;83.17
3122;BME280;1571;52.524;14.104;2023-02-18T01:48:29;100872.50;;;5.95;83.37
3122;BME280;1571;52.524;14.104;2023-02-18T01:51:03;100867.25;;;5.93;83.62
3122;BME280;1571;52.524;14.104;2023-02-18T01:53:39;100862.81;;;5.94;83.70
3122;BME280;1571;52.524;14.104;2023-02-18T01:56:10;100867.31;;;5.92;83.92
3122;BME280;1571;52.524;14.104;2023-02-18T01:58:42;100873.69;;;5.86;84.19
3122;BME280;1571;52.524;14.104;2023-02-18T02:01:10;100866.69;;;5.85;84.33
3122;BME280;1571;52.524;14.104;2023-02-18T02:03:42;100881.66;;;5.84;84.72
3122;BME280;1571;52.524;14.104;2023-02-18T02:06:16;100870.41;;;5.81;84.66
3122;BME280;1571;52.524;14.104;2023-02-18T02:08:51;100875.66;;;5.81;84.46
3122;BME280;1571;52.524;14.104;2023-02-18T02:11:26;100867.81;;;5.79;84.68
3122;BME280;1571;52.524;14.104;2023-02-18T02:14:07;100888.03;;;5.79;84.65
3122;BME280;1571;52.524;14.104;2023-02-18T02:16:44;100876.75;;;5.75;85.16
3122;BME280;1571;52.524;14.104;2023-02-18T02:19:51;100879.34;;;5.77;85.19
3122;BME280;1571;52.524;14.104;2023-02-18T02:22:52;100872.22;;;5.79;85.04
3122;BME280;1571;52.524;14.104;2023-02-18T02:25:45;100886.53;;;5.72;84.78
3122;BME280;1571;52.524;14.104;2023-02-18T02:28:44;100870.63;;;5.75;85.07
3122;BME280;1571;52.524;14.104;2023-02-18T02:31:36;100859.28;;;5.73;84.71
3122;BME280;1571;52.524;14.104;2023-02-18T02:34:33;100851.63;;;5.67;84.75
3122;BME280;1571;52.524;14.104;2023-02-18T02:37:08;100871.25;;;5.59;85.33
3122;BME280;1571;52.524;14.104;2023-02-18T02:39:48;100877.31;;;5.61;85.03
3122;BME280;1571;52.524;14.104;2023-02-18T02:42:25;100870.25;;;5.62;84.57
3122;BME280;1571;52.524;14.104;2023-02-18T02:45:03;100876.28;;;5.66;84.65
3122;BME280;1571;52.524;14.104;2023-02-18T02:47:37;100880.56;;;5.68;84.75
3122;BME280;1571;52.524;14.104;2023-02-18T02:50:13;100882.41;;;5.66;85.07
3122;BME280;1571;52.524;14.104;2023-02-18T02:52:47;100891.47;;;5.59;85.00
3122;BME280;1571;52.524;14.104;2023-02-18T02:55:19;100888.56;;;5.65;85.14
3122;BME280;1571;52.524;14.104;2023-02-18T02:57:52;100908.16;;;5.58;85.41
3122;BME280;1571;52.524;14.104;2023-02-18T03:00:36;100902.63;;;5.66;85.43
3122;BME280;1571;52.524;14.104;2023-02-18T03:03:25;100912.41;;;5.62;85.43
3122;BME280;1571;52.524;14.104;2023-02-18T03:06:14;100908.72;;;5.66;85.28
3122;BME280;1571;52.524;14.104;2023-02-18T03:08:56;100927.00;;;5.71;85.47
3122;BME280;1571;52.524;14.104;2023-02-18T03:11:33;100899.66;;;5.73;85.16
3122;BME280;1571;52.524;14.104;2023-02-18T03:14:11;100912.28;;;5.65;85.08
3122;BME280;1571;52.524;14.104;2023-02-18T03:16:46;100924.31;;;5.72;85.21
3122;BME280;1571;52.524;14.104;2023-02-18T03:19:20;100915.88;;;5.62;85.31
3122;BME280;1571;52.524;14.104;2023-02-18T03:21:57;100930.25;;;5.54;85.56
3122;BME280;1571;52.524;14.104;2023-02-18T03:24:29;100923.06;;;5.59;85.75
3122;BME280;1571;52.524;14.104;2023-02-18T03:27:03;100927.47;;;5.58;85.55
3122;BME280;1571;52.524;14.104;2023-02-18T03:29:34;100925.78;;;5.56;85.61
3122;BME280;1571;52.524;14.104;2023-02-18T03:32:05;100927.47;;;5.58;85.71
3122;BME280;1571;52.524;14.104;2023-02-18T03:34:37;100923.59;;;5.45;85.95
3122;BME280;1571;52.524;14.104;2023-02-18T03:37:09;100927.47;;;5.58;85.95
3122;BME280;1571;52.524;14.104;2023-02-18T03:39:41;100939.72;;;5.59;85.47
3122;BME280;1571;52.524;14.104;2023-02-18T03:42:11;100931.25;;;5.51;85.99
3122;BME280;1571;52.524;14.104;2023-02-18T03:44:39;100930.16;;;5.57;85.78
3122;BME280;1571;52.524;14.104;2023-02-18T03:47:07;100930.03;;;5.60;86.05
3122;BME280;1571;52.524;14.104;2023-02-18T03:49:35;100930.78;;;5.63;85.75
3122;BME280;1571;52.524;14.104;2023-02-18T03:52:04;100929.31;;;5.56;85.55
3122;BME280;1571;52.524;14.104;2023-02-18T03:54:35;100936.72;;;5.69;85.29
3122;BME280;1571;52.524;14.104;2023-02-18T03:57:03;100932.66;;;5.60;85.44
3122;BME280;1571;52.524;14.104;2023-02-18T03:59:31;100941.41;;;5.60;85.78
3122;BME280;1571;52.524;14.104;2023-02-18T04:01:59;100950.47;;;5.53;85.89
3122;BME280;1571;52.524;14.104;2023-02-18T04:04:28;100954.41;;;5.65;85.50
3122;BME280;1571;52.524;14.104;2023-02-18T04:06:56;100942.84;;;5.69;85.26
3122;BME280;1571;52.524;14.104;2023-02-18T04:09:25;100942.94;;;5.68;85.02
3122;BME280;1571;52.524;14.104;2023-02-18T04:11:54;100960.44;;;5.69;84.80
3122;BME280;1571;52.524;14.104;2023-02-18T04:14:22;100952.09;;;5.57;85.31
3122;BME280;1571;52.524;14.104;2023-02-18T04:16:51;100938.59;;;5.65;85.14
3122;BME280;1571;52.524;14.104;2023-02-18T04:19:19;100942.94;;;5.68;84.74
3122;BME280;1571;52.524;14.104;2023-02-18T04:21:47;100939.34;;;5.69;84.73
3122;BME280;1571;52.524;14.104;2023-02-18T04:24:15;100944.75;;;5.66;84.60
3122;BME280;1571;52.524;14.104;2023-02-18T04:26:43;100941.09;;;5.70;84.61
3122;BME280;1571;52.524;14.104;2023-02-18T04:29:13;100950.94;;;5.64;84.48
3122;BME280;1571;52.524;14.104;2023-02-18T04:31:41;100949.50;;;5.56;84.84
3122;BME280;1571;52.524;14.104;2023-02-18T04:34:09;100942.22;;;5.62;84.39
3122;BME280;1571;52.524;14.104;2023-02-18T04:36:38;100937.88;;;5.61;84.44
3122;BME280;1571;52.524;14.104;2023-02-18T04:39:06;100944.06;;;5.60;84.30
3122;BME280;1571;52.524;14.104;2023-02-18T04:41:34;100946.06;;;5.54;84.47
3122;BME280;1571;52.524;14.104;2023-02-18T04:44:02;100949.56;;;5.54;84.39
3122;BME280;1571;52.524;14.104;2023-02-18T04:46:32;100940.19;;;5.47;84.24
3122;BME280;1571;52.524;14.104;2023-02-18T04:49:00;100949.22;;;5.40;84.61
3122;BME280;1571;52.524;14.104;2023-02-18T04:51:28;100945.00;;;5.36;84.88
3122;BME280;1571;52.524;14.104;2023-02-18T04:53:57;100951.06;;;5.38;84.75
3122;BME280;1571;52.524;14.104;2023-02-18T04:56:25;100949.69;;;5.28;84.95
3122;BME280;1571;52.524;14.104;2023-02-18T04:58:53;100935.50;;;5.32;84.86
3122;BME280;1571;52.524;14.104;2023-02-18T05:01:21;100949.22;;;5.40;84.58
3122;BME280;1571;52.524;14.104;2023-02-18T05:03:51;100948.59;;;5.33;84.67
3122;BME280;1571;52.524;14.104;2023-02-18T05:06:19;100950.19;;;5.37;84.57
3122;BME280;1571;52.524;14.104;2023-02-18T05:08:47;100945.91;;;5.35;84.67
3122;BME280;1571;52.524;14.104;2023-02-18T05:11:15;100959.19;;;5.32;84.48
3122;BME280;1571;52.524;14.104;2023-02-18T05:13:43;100954.84;;;5.31;84.68
3122;BME280;1571;52.524;14.104;2023-02-18T05:16:12;100949.91;;;5.21;84.94
3122;BME280;1571;52.524;14.104;2023-02-18T05:18:40;100950.13;;;5.15;84.88
3122;BME280;1571;52.524;14.104;2023-02-18T05:21:10;100944.56;;;5.25;85.05
3122;BME280;1571;52.524;14.104;2023-02-18T05:23:38;100947.25;;;5.23;84.73
3122;BME280;1571;52.524;14.104;2023-02-18T05:26:07;100954.19;;;5.24;84.87
3122;BME280;1571;52.524;14.104;2023-02-18T05:28:35;100959.47;;;5.24;84.78
3122;BME280;1571;52.524;14.104;2023-02-18T05:31:04;100957.56;;;5.29;84.71
3122;BME280;1571;52.524;14.104;2023-02-18T05:33:32;100958.84;;;5.17;84.65
3122;BME280;1571;52.524;14.104;2023-02-18T05:36:01;100953.97;;;5.30;84.58
3122;BME280;1571;52.524;14.104;2023-02-18T05:38:30;100953.00;;;5.33;84.47
3122;BME280;1571;52.524;14.104;2023-02-18T05:40:58;100956.31;;;5.38;84.15
3122;BME280;1571;52.524;14.104;2023-02-18T05:43:26;100956.56;;;5.32;83.92
3122;BME280;1571;52.524;14.104;2023-02-18T05:45:55;100952.31;;;5.28;84.00
3122;BME280;1571;52.524;14.104;2023-02-18T05:48:23;100953.22;;;5.27;84.05
3122;BME280;1571;52.524;14.104;2023-02-18T05:50:52;100960.00;;;5.34;83.99
3122;BME280;1571;52.524;14.104;2023-02-18T05:53:21;100959.13;;;5.33;84.13
3122;BME280;1571;52.524;14.104;2023-02-18T05:55:50;100954.19;;;5.24;84.17
3122;BME280;1571;52.524;14.104;2023-02-18T05:58:19;100953.13;;;5.30;84.02
3122;BME280;1571;52.524;14.104;2023-02-18T06:00:47;100962.06;;;5.26;83.88
3122;BME280;1571;52.524;14.104;2023-02-18T06:03:15;100948.72;;;5.30;83.97
3122;BME280;1571;52.524;14.104;2023-02-18T06:05:43;100954.78;;;5.32;83.73
3122;BME280;1571;52.524;14.104;2023-02-18T06:08:13;100953.38;;;5.47;83.47
3122;BME280;1571;52.524;14.104;2023-02-18T06:10:42;100958.06;;;5.39;83.29
3122;BME280;1571;52.524;14.104;2023-02-18T06:13:11;100954.22;;;5.48;82.70
3122;BME280;1571;52.524;14.104;2023-02-18T06:15:39;100959.66;;;5.43;82.65
3122;BME280;1571;52.524;14.104;2023-02-18T06:18:07;100960.38;;;5.47;82.41
3122;BME280;1571;52.524;14.104;2023-02-18T06:20:36;100961.28;;;5.47;82.43
3122;BME280;1571;52.524;14.104;2023-02-18T06:23:06;100959.19;;;5.55;82.28
3122;BME280;1571;52.524;14.104;2023-02-18T06:25:37;100952.03;;;5.59;82.08
3122;BME280;1571;52.524;14.104;2023-02-18T06:28:05;100970.06;;;5.46;82.13
3122;BME280;1571;52.524;14.104;2023-02-18T06:30:35;100959.84;;;5.60;82.18
3122;BME280;1571;52.524;14.104;2023-02-18T06:33:03;100956.09;;;5.44;82.35
3122;BME280;1571;52.524;14.104;2023-02-18T06:35:32;100962.63;;;5.57;82.19
3122;BME280;1571;52.524;14.104;2023-02-18T06:38:01;100959.09;;;5.58;82.22
3122;BME280;1571;52.524;14.104;2023-02-18T06:40:29;100957.13;;;5.63;81.69
3122;BME280;1571;52.524;14.104;2023-02-18T06:42:57;100956.38;;;5.60;82.02
3122;BME280;1571;52.524;14.104;2023-02-18T06:45:26;100961.38;;;5.68;81.34
3122;BME280;1571;52.524;14.104;2023-02-18T06:47:55;100950.88;;;5.66;81.61
3122;BME280;1571;52.524;14.104;2023-02-18T06:50:23;100941.94;;;5.70;81.32
3122;BME280;1571;52.524;14.104;2023-02-18T06:52:52;100930.25;;;5.77;80.98
3122;BME280;1571;52.524;14.104;2023-02-18T06:55:20;100925.09;;;5.74;80.37
3122;BME280;1571;52.524;14.104;2023-02-18T06:57:48;100925.53;;;5.86;80.34
3122;BME280;1571;52.524;14.104;2023-02-18T07:00:17;100924.66;;;5.85;79.86
3122;BME280;1571;52.524;14.104;2023-02-18T07:02:46;100925.13;;;5.96;80.00
3122;BME280;1571;52.524;14.104;2023-02-18T07:05:15;100931.88;;;6.03;79.58
3122;BME280;1571;52.524;14.104;2023-02-18T07:07:44;100930.69;;;5.89;79.73
3122;BME280;1571;52.524;14.104;2023-02-18T07:10:12;100935.09;;;5.88;79.75
3122;BME280;1571;52.524;14.104;2023-02-18T07:12:40;100926.84;;;5.97;79.40
3122;BME280;1571;52.524;14.104;2023-02-18T07:15:09;100937.38;;;5.97;79.40
3122;BME280;1571;52.524;14.104;2023-02-18T07:17:37;100935.56;;;5.99;79.24
3122;BME280;1571;52.524;14.104;2023-02-18T07:20:06;100932.97;;;5.98;79.29
3122;BME280;1571;52.524;14.104;2023-02-18T07:22:36;100929.13;;;6.07;79.24
3122;BME280;1571;52.524;14.104;2023-02-18T07:25:05;100916.84;;;6.05;79.20
3122;BME280;1571;52.524;14.104;2023-02-18T07:27:33;100929.53;;;5.96;79.57
3122;BME280;1571;52.524;14.104;2023-02-18T07:30:01;100923.69;;;6.10;79.52
3122;BME280;1571;52.524;14.104;2023-02-18T07:32:30;100925.75;;;6.23;79.23
3122;BME280;1571;52.524;14.104;2023-02-18T07:34:58;100918.75;;;6.24;79.25
3122;BME280;1571;52.524;14.104;2023-02-18T07:37:26;100915.97;;;6.27;79.02
3122;BME280;1571;52.524;14.104;2023-02-18T07:39:56;100914.31;;;6.24;79.17
3122;BME280;1571;52.524;14.104;2023-02-18T07:42:24;100919.34;;;6.31;79.45
3122;BME280;1571;52.524;14.104;2023-02-18T07:44:52;100903.56;;;6.29;79.85
3122;BME280;1571;52.524;14.104;2023-02-18T07:47:21;100915.31;;;6.42;79.25
3122;BME280;1571;52.524;14.104;2023-02-18T07:49:49;100904.13;;;6.37;79.04
3122;BME280;1571;52.524;14.104;2023-02-18T07:52:17;100906.63;;;6.40;79.00
3122;BME280;1571;52.524;14.104;2023-02-18T07:54:45;100901.19;;;6.43;79.01
3122;BME280;1571;52.524;14.104;2023-02-18T07:57:15;100898.97;;;6.55;79.21
3122;BME280;1571;52.524;14.104;2023-02-18T07:59:43;100887.75;;;6.50;78.98
3122;BME280;1571;52.524;14.104;2023-02-18T08:02:14;100878.19;;;6.47;79.03
3122;BME280;1571;52.524;14.104;2023-02-18T08:04:44;100880.38;;;6.58;78.52
3122;BME280;1571;52.524;14.104;2023-02-18T08:07:13;100880.88;;;6.66;78.39
3122;BME280;1571;52.524;14.104;2023-02-18T08:09:42;100884.31;;;6.68;78.37
3122;BME280;1571;52.524;14.104;2023-02-18T08:12:10;100874.09;;;6.81;77.90
3122;BME280;1571;52.524;14.104;2023-02-18T08:14:40;100881.63;;;6.70;78.34
3122;BME280;1571;52.524;14.104;2023-02-18T08:17:08;100884.31;;;6.68;78.34
3122;BME280;1571;52.524;14.104;2023-02-18T08:19:36;100869.22;;;6.72;78.65
3122;BME280;1571;52.524;14.104;2023-02-18T08:22:04;100873.75;;;6.68;78.47
3122;BME280;1571;52.524;14.104;2023-02-18T08:24:32;100863.47;;;6.82;78.21
3122;BME280;1571;52.524;14.104;2023-02-18T08:27:01;100854.56;;;6.85;78.53
3122;BME280;1571;52.524;14.104;2023-02-18T08:29:29;100851.72;;;6.90;78.31
3122;BME280;1571;52.524;14.104;2023-02-18T08:31:58;100849.72;;;6.95;78.04
3122;BME280;1571;52.524;14.104;2023-02-18T08:34:26;100841.38;;;7.04;78.06
3122;BME280;1571;52.524;14.104;2023-02-18T08:36:55;100836.72;;;7.09;77.65
3122;BME280;1571;52.524;14.104;2023-02-18T08:39:23;100827.31;;;7.22;77.37
3122;BME280;1571;52.524;14.104;2023-02-18T08:41:51;100818.53;;;7.41;77.17
3122;BME280;1571;52.524;14.104;2023-02-18T08:44:19;100826.56;;;7.38;76.81
3122;BME280;1571;52.524;14.104;2023-02-18T08:46:47;100825.31;;;7.27;77.21
3122;BME280;1571;52.524;14.104;2023-02-18T08:49:17;100841.50;;;7.39;77.04
3122;BME280;1571;52.524;14.104;2023-02-18T08:51:46;100823.03;;;7.39;76.53
3122;BME280;1571;52.524;14.104;2023-02-18T08:54:15;100823.94;;;7.38;77.18
3122;BME280;1571;52.524;14.104;2023-02-18T08:56:43;100826.00;;;7.31;77.03
3122;BME280;1571;52.524;14.104;2023-02-18T08:59:12;100822.03;;;7.22;77.59
3122;BME280;1571;52.524;14.104;2023-02-18T09:01:40;100816.09;;;7.17;77.81
3122;BME280;1571;52.524;14.104;2023-02-18T09:04:08;100813.41;;;7.19;78.57
3122;BME280;1571;52.524;14.104;2023-02-18T09:06:38;100817.41;;;7.27;78.73
3122;BME280;1571;52.524;14.104;2023-02-18T09:09:06;100819.72;;;7.34;78.64
3122;BME280;1571;52.524;14.104;2023-02-18T09:11:36;100819.31;;;7.24;79.22
3122;BME280;1571;52.524;14.104;2023-02-18T09:14:04;100833.38;;;7.24;80.13
3122;BME280;1571;52.524;14.104;2023-02-18T09:16:32;100824.66;;;7.22;80.30
3122;BME280;1571;52.524;14.104;2023-02-18T09:19:00;100836.44;;;7.15;81.34
3122;BME280;1571;52.524;14.104;2023-02-18T09:21:28;100828.16;;;7.04;81.71
3122;BME280;1571;52.524;14.104;2023-02-18T09:23:58;100829.91;;;7.05;82.35
3122;BME280;1571;52.524;14.104;2023-02-18T09:26:26;100827.53;;;6.99;83.27
3122;BME280;1571;52.524;14.104;2023-02-18T09:28:55;100833.34;;;6.86;84.23
3122;BME280;1571;52.524;14.104;2023-02-18T09:31:25;100839.41;;;6.88;85.14
3122;BME280;1571;52.524;14.104;2023-02-18T09:33:55;100829.84;;;6.67;85.82
3122;BME280;1571;52.524;14.104;2023-02-18T09:36:24;100829.47;;;6.56;nan
3122;BME280;1571;52.524;14.104;2023-02-18T09:38:53;100824.47;;;6.50;88.65
3122;BME280;1571;52.524;14.104;2023-02-18T09:41:28;100821.63;;;6.34;90.00
3122;BME280;1571;52.524;14.104;2023-02-18T09:44:00;100812.53;;;6.41;91.83
3122;BME280;1571;52.524;14.104;2023-02-18T09:46:32;100798.91;;;6.31;93.26
3122;BME280;1571;52.524;14.104;2023-02-18T09:49:02;100786.91;;;6.24;94.95
3122;BME280;1571;52.524;14.104;2023-02-18T09:51:31;100785.72;;;6.11;97.30
3122;BME280;1571;52.524;14.104;2023-02-18T09:53:59;100779.28;;;6.18;98.50
3122;BME280;1571;52.524;14.104;2023-02-18T09:56:31;100783.09;;;6.11;99.67
3122;BME280;1571;52.524;14.104;2023-02-18T09:59:03;100766.53;;;6.07;100.00
3122;BME280;1571;52.524;14.104;2023-02-18T10:01:35;100763.56;;;5.94;100.00
3122;BME280;1571;52.524;14.104;2023-02-18T10:04:09;100771.13;;;6.03;100.00
3122;BME280;1571;52.524;14.104;2023-02-18T10:06:39;100767.78;;;5.98;100.00
3122;BME280;1571;52.524;14.104;2023-02-18T10:09:17;100763.81;;;5.88;100.00
3122;BME280;1571;52.524;14.104;2023-02-18T10:11:50;100753.34;;;5.87;100.00
3122;BME280;1571;52.524;14.104;2023-02-18T10:14:19;100738.50;;;6.06;100.00
3122;BME280;1571;52.524;14.104;2023-02-18T10:16:49;100712.94;;;6.08;100.00
3122;BME280;1571;52.524;14.104;2023-02-18T10:19:22;100710.25;;;6.29;100.00
3122;BME280;1571;52.524;14.104;2023-02-18T10:21:53;100705.09;;;6.25;100.00
3122;BME280;1571;52.524;14.104;2023-02-18T10:24:27;100704.59;;;6.17;100.00
3122;BME280;1571;52.524;14.104;2023-02-18T10:26:58;100703.03;;;6.32;100.00
3122;BME280;1571;52.524;14.104;2023-02-18T10:29:27;100706.56;;;6.33;100.00
3122;BME280;1571;52.524;14.104;2023-02-18T10:32:05;100698.06;;;6.26;100.00
3122;BME280;1571;52.524;14.104;2023-02-18T10:34:42;100688.06;;;6.14;100.00
3122;BME280;1571;52.524;14.104;2023-02-18T10:37:36;100686.91;;;6.00;100.00
3122;BME280;1571;52.524;14.104;2023-02-18T10:40:12;100672.47;;;6.09;100.00
3122;BME280;1571;52.524;14.104;2023-02-18T10:42:57;100659.78;;;6.36;100.00
3122;BME280;1571;52.524;14.104;2023-02-18T10:45:35;100640.44;;;6.37;100.00
3122;BME280;1571;52.524;14.104;2023-02-18T10:48:22;100632.16;;;6.26;100.00
3122;BME280;1571;52.524;14.104;2023-02-18T10:50:54;100620.16;;;6.19;100.00
3122;BME280;1571;52.524;14.104;2023-02-18T10:53:29;100609.84;;;6.33;100.00
3122;BME280;1571;52.524;14.104;2023-02-18T10:55:58;100605.44;;;6.15;100.00
3122;BME280;1571;52.524;14.104;2023-02-18T10:58:32;100592.47;;;5.90;100.00
3122;BME280;1571;52.524;14.104;2023-02-18T11:01:03;100582.78;;;6.11;100.00
3122;BME280;1571;52.524;14.104;2023-02-18T11:03:39;100575.75;;;5.91;100.00
3122;BME280;1571;52.524;14.104;2023-02-18T11:06:19;100565.56;;;6.03;100.00
3122;BME280;1571;52.524;14.104;2023-02-18T11:08:48;100558.81;;;5.96;100.00
3122;BME280;1571;52.524;14.104;2023-02-18T11:11:20;100558.81;;;5.96;100.00
3122;BME280;1571;52.524;14.104;2023-02-18T11:13:55;100556.53;;;5.70;100.00
3122;BME280;1571;52.524;14.104;2023-02-18T11:16:36;100542.88;;;5.60;100.00
3122;BME280;1571;52.524;14.104;2023-02-18T11:19:05;100539.00;;;5.69;100.00
3122;BME280;1571;52.524;14.104;2023-02-18T11:22:06;100540.19;;;5.61;100.00
3122;BME280;1571;52.524;14.104;2023-02-18T11:24:37;100526.56;;;5.72;100.00
3122;BME280;1571;52.524;14.104;2023-02-18T11:27:08;100506.69;;;5.84;100.00
3122;BME280;1571;52.524;14.104;2023-02-18T11:29:40;100500.13;;;5.74;100.00
3122;BME280;1571;52.524;14.104;2023-02-18T11:32:09;100487.97;;;5.90;100.00
3122;BME280;1571;52.524;14.104;2023-02-18T11:34:41;100474.34;;;5.80;100.00
3122;BME280;1571;52.524;14.104;2023-02-18T11:37:17;100468.38;;;5.96;100.00
3122;BME280;1571;52.524;14.104;2023-02-18T11:39:48;100465.88;;;5.93;100.00
3122;BME280;1571;52.524;14.104;2023-02-18T11:42:18;100469.38;;;5.93;100.00
3122;BME280;1571;52.524;14.104;2023-02-18T11:44:50;100451.28;;;6.04;100.00
3122;BME280;1571;52.524;14.104;2023-02-18T11:47:22;100454.41;;;5.94;100.00
3122;BME280;1571;52.524;14.104;2023-02-18T11:50:15;100448.88;;;5.81;100.00
3122;BME280;1571;52.524;14.104;2023-02-18T11:52:46;100444.53;;;5.80;100.00
3122;BME280;1571;52.524;14.104;2023-02-18T11:55:18;100433.19;;;5.78;100.00
3122;BME280;1571;52.524;14.104;2023-02-18T11:57:50;100434.19;;;5.75;100.00
3122;BME280;1571;52.524;14.104;2023-02-18T12:00:24;100426.88;;;5.82;100.00
3122;BME280;1571;52.524;14.104;2023-02-18T12:02:58;100423.94;;;5.88;100.00
3122;BME280;1571;52.524;14.104;2023-02-18T12:05:27;100417.09;;;6.03;100.00
3122;BME280;1571;52.524;14.104;2023-02-18T12:08:01;100411.75;;;6.04;100.00
3122;BME280;1571;52.524;14.104;2023-02-18T12:10:32;100411.06;;;5.82;100.00
3122;BME280;1571;52.524;14.104;2023-02-18T12:13:06;100406.94;;;5.95;100.00
3122;BME280;1571;52.524;14.104;2023-02-18T12:15:48;100415.25;;;5.86;100.00
3122;BME280;1571;52.524;14.104;2023-02-18T12:18:26;100411.59;;;5.52;100.00
3122;BME280;1571;52.524;14.104;2023-02-18T12:21:13;100400.03;;;5.74;100.00
3122;BME280;1571;52.524;14.104;2023-02-18T12:23:55;100370.69;;;5.81;100.00
3122;BME280;1571;52.524;14.104;2023-02-18T12:26:28;100394.50;;;5.42;100.00
3122;BME280;1571;52.524;14.104;2023-02-18T12:29:15;100405.19;;;5.39;100.00
3122;BME280;1571;52.524;14.104;2023-02-18T12:31:57;100401.75;;;5.75;100.00
3122;BME280;1571;52.524;14.104;2023-02-18T12:34:40;100380.78;;;5.91;100.00
3122;BME280;1571;52.524;14.104;2023-02-18T12:37:39;100380.53;;;5.97;100.00
3122;BME280;1571;52.524;14.104;2023-02-18T12:40:28;100370.66;;;6.00;100.00
3122;BME280;1571;52.524;14.104;2023-02-18T12:43:08;100378.66;;;5.80;100.00
3122;BME280;1571;52.524;14.104;2023-02-18T12:45:52;100366.88;;;5.70;100.00
3122;BME280;1571;52.524;14.104;2023-02-18T12:48:45;100365.75;;;5.93;100.00
3122;BME280;1571;52.524;14.104;2023-02-18T12:51:24;100349.22;;;5.89;100.00
3122;BME280;1571;52.524;14.104;2023-02-18T12:54:08;100347.06;;;5.80;100.00
3122;BME280;1571;52.524;14.104;2023-02-18T12:56:51;100341.88;;;6.15;100.00
3122;BME280;1571;52.524;14.104;2023-02-18T13:02:45;100328.38;;;6.03;100.00
3122;BME280;1571;52.524;14.104;2023-02-18T13:05:27;100323.63;;;6.28;100.00
3122;BME280;1571;52.524;14.104;2023-02-18T13:08:08;100310.59;;;6.24;100.00
3122;BME280;1571;52.524;14.104;2023-02-18T13:11:08;100308.81;;;6.42;100.00
3122;BME280;1571;52.524;14.104;2023-02-18T13:13:45;100298.09;;;6.45;100.00
3122;BME280;1571;52.524;14.104;2023-02-18T13:16:17;100283.00;;;6.65;100.00
3122;BME280;1571;52.524;14.104;2023-02-18T13:18:55;100283.94;;;6.64;100.00
3122;BME280;1571;52.524;14.104;2023-02-18T13:21:27;100272.59;;;6.62;100.00
3122;BME280;1571;52.524;14.104;2023-02-18T13:23:57;100282.00;;;6.83;100.00
3122;BME280;1571;52.524;14.104;2023-02-18T13:26:28;100261.84;;;6.82;100.00
3122;BME280;1571;52.524;14.104;2023-02-18T13:29:13;100261.47;;;6.73;100.00
3122;BME280;1571;52.524;14.104;2023-02-18T13:31:49;100266.50;;;6.77;100.00
3122;BME280;1571;52.524;14.104;2023-02-18T13:34:24;100263.03;;;6.93;100.00
3122;BME280;1571;52.524;14.104;2023-02-18T13:37:03;100261.88;;;6.98;100.00